createdAt,value
2023-03-05T00:00:47.686Z,100.00
2023-03-05T00:06:06.376Z,100.00
2023-03-05T00:11:12.736Z,100.00
2023-03-05T00:16:20.231Z,100.00
2023-03-05T00:21:27.863Z,100.00
2023-03-05T00:26:34.663Z,100.00
2023-03-05T00:31:39.678Z,100.00
2023-03-05T00:36:47.531Z,100.00
2023-03-05T00:41:52.296Z,100.00
2023-03-05T00:46:56.719Z,100.00
2023-03-05T00:52:02.554Z,100.00
2023-03-05T00:57:07.223Z,100.00
2023-03-05T01:02:11.577Z,100.00
2023-03-05T01:07:17.357Z,100.00
2023-03-05T01:12:21.652Z,100.00
2023-03-05T01:17:25.948Z,96.24
2023-03-05T01:22:31.956Z,97.50
2023-03-05T01:27:36.559Z,93.44
2023-03-05T01:32:41.260Z,92.41
2023-03-05T01:37:47.131Z,91.88
2023-03-05T01:42:58.574Z,84.29
2023-03-05T01:48:03.027Z,88.78
2023-03-05T01:53:09.553Z,86.08
2023-03-05T01:58:15.513Z,82.89
2023-03-05T02:03:21.232Z,89.54
2023-03-05T02:08:26.929Z,90.35
2023-03-05T02:13:34.273Z,85.84
2023-03-05T02:18:39.077Z,92.07
2023-03-05T02:23:45.336Z,90.22
2023-03-05T02:28:54.603Z,86.27
2023-03-05T02:33:59.023Z,86.45
2023-03-05T02:39:05.836Z,84.35
2023-03-05T02:44:11.375Z,94.49
2023-03-05T02:49:15.830Z,100.00
2023-03-05T02:54:22.290Z,95.35
2023-03-05T02:59:26.779Z,99.28
2023-03-05T03:04:31.279Z,96.78
2023-03-05T03:09:37.153Z,93.83
2023-03-05T03:14:43.772Z,89.75
2023-03-05T03:19:48.195Z,91.84
2023-03-05T03:24:53.926Z,91.21
2023-03-05T03:30:02.655Z,99.87
2023-03-05T03:35:08.272Z,100.00
2023-03-05T03:40:14.883Z,100.00
2023-03-05T03:45:19.748Z,100.00
2023-03-05T03:50:25.151Z,100.00
2023-03-05T03:55:30.871Z,100.00
2023-03-05T04:00:35.261Z,100.00
2023-03-05T04:05:39.516Z,100.00
2023-03-05T04:10:45.443Z,100.00
2023-03-05T04:15:50.481Z,95.57
2023-03-05T04:20:54.955Z,98.94
2023-03-05T04:26:00.680Z,97.29
2023-03-05T04:31:04.894Z,93.26
2023-03-05T04:36:10.112Z,93.57
2023-03-05T04:41:15.899Z,92.53
2023-03-05T04:46:20.134Z,93.03
2023-03-05T04:51:24.511Z,98.51
2023-03-05T04:56:30.275Z,94.65
2023-03-05T05:01:35.535Z,93.46
2023-03-05T05:06:39.946Z,93.91
2023-03-05T05:11:45.745Z,83.62
2023-03-05T05:16:50.071Z,87.34
2023-03-05T05:21:54.343Z,88.05
2023-03-05T05:27:00.150Z,92.03
2023-03-05T05:32:04.539Z,91.55
2023-03-05T05:37:09.062Z,85.89
2023-03-05T05:42:14.899Z,92.95
2023-03-05T05:47:19.655Z,89.10
2023-03-05T05:52:24.342Z,90.43
2023-03-05T05:57:30.088Z,91.34
2023-03-05T06:02:34.441Z,93.38
2023-03-05T06:07:38.887Z,93.62
2023-03-05T06:12:44.772Z,100.00
2023-03-05T06:17:49.400Z,97.39
2023-03-05T06:22:53.764Z,100.00
2023-03-05T06:27:59.580Z,100.00
2023-03-05T06:33:07.356Z,100.00
2023-03-05T06:38:12.903Z,100.00
2023-03-05T06:43:18.995Z,100.00
2023-03-05T06:48:23.340Z,100.00
2023-03-05T06:53:28.343Z,100.00
2023-03-05T06:58:34.115Z,100.00
2023-03-05T07:03:39.216Z,100.00
2023-03-05T07:08:46.803Z,100.00
2023-03-05T07:14:00.360Z,100.00
2023-03-05T07:19:14.693Z,100.00
2023-03-05T07:24:19.296Z,100.00
2023-03-05T07:29:25.323Z,100.00
2023-03-05T07:34:30.100Z,100.00
2023-03-05T07:39:34.710Z,100.00
2023-03-05T07:44:40.496Z,100.00
2023-03-05T07:49:44.440Z,95.07
2023-03-05T07:54:48.712Z,85.97
2023-03-05T07:59:54.476Z,87.17
2023-03-05T08:04:58.646Z,89.40
2023-03-05T08:10:03.741Z,88.00
2023-03-05T08:15:10.579Z,86.21
2023-03-05T08:20:15.310Z,84.48
2023-03-05T08:25:19.707Z,88.82
2023-03-05T08:30:27.617Z,85.76
2023-03-05T08:35:32.378Z,85.31
2023-03-05T08:40:36.883Z,80.47
2023-03-05T08:45:42.748Z,80.93
2023-03-05T08:50:47.263Z,81.70
2023-03-05T08:55:56.198Z,84.65
2023-03-05T09:01:02.035Z,82.30
2023-03-05T09:06:07.753Z,82.45
2023-03-05T09:11:14.601Z,83.11
2023-03-05T09:16:21.224Z,86.54
2023-03-05T09:21:25.919Z,89.42
2023-03-05T09:26:30.593Z,89.42
2023-03-05T09:31:39.461Z,89.51
2023-03-05T09:36:49.265Z,91.76
2023-03-05T09:42:29.959Z,86.43
2023-03-05T09:48:20.505Z,88.74
2023-03-05T09:54:40.371Z,88.57
2023-03-05T10:00:33.172Z,89.86
2023-03-05T10:06:08.693Z,90.05
2023-03-05T10:11:55.151Z,91.33
2023-03-05T10:17:43.943Z,87.57
2023-03-05T10:23:24.871Z,90.52
2023-03-05T10:28:37.132Z,89.26
2023-03-05T10:33:48.895Z,89.04
2023-03-05T10:39:30.919Z,91.08
2023-03-05T10:44:38.935Z,91.67
2023-03-05T10:49:51.783Z,88.37
2023-03-05T10:54:57.696Z,86.50
2023-03-05T11:00:08.502Z,93.62
2023-03-05T11:05:38.816Z,93.39
2023-03-05T11:10:44.800Z,93.53
2023-03-05T11:16:06.324Z,91.32
2023-03-05T11:21:13.870Z,88.24
2023-03-05T11:26:24.399Z,85.81
2023-03-05T11:31:30.360Z,81.60
2023-03-05T11:36:34.987Z,84.05
2023-03-05T11:41:49.542Z,86.44
2023-03-05T11:46:57.721Z,88.12
2023-03-05T11:52:10.883Z,80.03
2023-03-05T11:57:34.669Z,84.82
2023-03-05T12:02:40.169Z,83.28
2023-03-05T12:07:48.417Z,83.74
2023-03-05T12:13:01.424Z,85.11
2023-03-05T12:18:22.105Z,88.19
2023-03-05T12:23:28.162Z,84.90
2023-03-05T12:28:57.407Z,84.04
2023-03-05T12:34:21.988Z,85.85
2023-03-05T12:46:36.844Z,85.25
2023-03-05T12:51:44.064Z,76.73
2023-03-05T12:56:49.275Z,75.90
2023-03-05T13:01:58.157Z,72.75
2023-03-05T13:07:19.215Z,70.63
2023-03-05T13:12:30.644Z,69.29
2023-03-05T13:17:44.510Z,69.31
2023-03-05T13:22:48.872Z,69.98
2023-03-05T13:27:53.394Z,71.86
2023-03-05T13:33:04.244Z,73.93
2023-03-05T13:38:22.663Z,72.77
2023-03-05T13:43:28.558Z,76.59
2023-03-05T13:48:34.824Z,78.78
2023-03-05T13:53:41.781Z,80.12
2023-03-05T13:58:49.826Z,81.41
2023-03-05T14:03:58.803Z,86.63
2023-03-05T14:09:07.827Z,96.67
2023-03-05T14:14:19.243Z,100.00
2023-03-05T14:19:37.149Z,100.00
2023-03-05T14:24:42.948Z,100.00
2023-03-05T14:29:47.873Z,100.00
2023-03-05T14:34:58.593Z,100.00
2023-03-05T14:40:06.557Z,100.00
2023-03-05T14:45:16.807Z,100.00
2023-03-05T14:50:25.343Z,100.00
2023-03-05T14:55:32.313Z,100.00
2023-03-05T15:00:36.890Z,100.00
2023-03-05T15:05:44.074Z,100.00
2023-03-05T15:10:48.619Z,100.00
2023-03-05T15:15:56.850Z,100.00
2023-03-05T15:21:10.149Z,100.00
2023-03-05T15:26:16.555Z,100.00
2023-03-05T15:31:21.087Z,100.00
2023-03-05T15:36:27.135Z,100.00
2023-03-05T15:41:31.615Z,100.00
2023-03-05T15:46:36.267Z,100.00
2023-03-05T15:51:42.145Z,100.00
2023-03-05T15:56:46.583Z,100.00
2023-03-05T16:01:52.812Z,100.00
2023-03-05T16:07:03.216Z,100.00
2023-03-05T16:12:14.343Z,100.00
2023-03-05T16:17:20.890Z,100.00
2023-03-05T16:22:27.008Z,100.00
2023-03-05T16:27:31.892Z,100.00
2023-03-05T16:32:38.595Z,100.00
2023-03-05T16:37:51.176Z,100.00
2023-03-05T16:42:55.756Z,100.00
2023-03-05T16:48:00.349Z,100.00
2023-03-05T16:53:06.543Z,100.00
2023-03-05T16:58:11.101Z,100.00
2023-03-05T17:03:15.848Z,100.00
2023-03-05T17:08:22.240Z,100.00
2023-03-05T17:13:26.698Z,100.00
2023-03-05T17:18:31.372Z,100.00
2023-03-05T17:23:38.444Z,100.00
2023-03-05T17:28:43.434Z,100.00
2023-03-05T17:33:48.412Z,100.00
2023-03-05T17:38:55.264Z,100.00
2023-03-05T17:43:59.634Z,100.00
2023-03-05T17:49:04.456Z,100.00
2023-03-05T17:54:10.402Z,100.00
2023-03-05T17:59:15.626Z,100.00
2023-03-05T18:04:20.599Z,100.00
2023-03-05T18:09:26.516Z,100.00
2023-03-05T18:14:31.102Z,100.00
2023-03-05T18:19:35.654Z,100.00
2023-03-05T18:24:42.229Z,100.00
2023-03-05T18:29:46.908Z,100.00
2023-03-05T18:34:52.943Z,100.00
2023-03-05T18:39:59.243Z,100.00
2023-03-05T18:45:04.704Z,100.00
2023-03-05T18:50:10.256Z,100.00
2023-03-05T18:55:17.208Z,100.00
2023-03-05T19:00:24.065Z,100.00
2023-03-05T19:05:28.731Z,100.00
2023-03-05T19:10:35.244Z,100.00
2023-03-05T19:15:41.295Z,100.00
2023-03-05T19:20:46.993Z,100.00
2023-03-05T19:25:52.982Z,100.00
2023-03-05T19:30:57.569Z,100.00
2023-03-05T19:36:02.185Z,100.00
2023-03-05T19:41:09.996Z,100.00
2023-03-05T19:46:14.716Z,100.00
2023-03-05T19:51:23.258Z,100.00
2023-03-05T19:56:29.164Z,100.00
2023-03-05T20:01:33.574Z,100.00
2023-03-05T20:06:38.996Z,100.00
2023-03-05T20:11:45.114Z,100.00
2023-03-05T20:16:49.492Z,100.00
2023-03-05T20:21:54.285Z,100.00
2023-03-05T20:27:00.741Z,100.00
2023-03-05T20:32:05.483Z,100.00
2023-03-05T20:37:10.178Z,100.00
2023-03-05T20:42:16.228Z,100.00
2023-03-05T20:47:32.379Z,100.00
2023-03-05T20:52:37.136Z,100.00
2023-03-05T20:57:46.663Z,100.00
2023-03-05T21:02:51.854Z,100.00
2023-03-05T21:07:56.359Z,100.00
2023-03-05T21:13:02.303Z,100.00
2023-03-05T21:18:06.683Z,100.00
2023-03-05T21:23:11.693Z,100.00
2023-03-05T21:28:18.741Z,100.00
2023-03-05T21:33:26.814Z,100.00
2023-03-05T21:38:34.104Z,100.00
2023-03-05T21:43:40.101Z,100.00
2023-03-05T21:48:44.618Z,100.00
2023-03-05T21:53:49.357Z,100.00
2023-03-05T21:58:55.589Z,100.00
2023-03-05T22:04:00.032Z,100.00
2023-03-05T22:09:04.416Z,100.00
2023-03-05T22:14:10.363Z,100.00
2023-03-05T22:19:15.978Z,100.00
2023-03-05T22:24:21.878Z,100.00
2023-03-05T22:29:27.434Z,100.00
2023-03-05T22:34:31.706Z,100.00
2023-03-05T22:39:36.173Z,100.00
2023-03-05T22:44:41.873Z,100.00
2023-03-05T22:49:46.961Z,100.00
2023-03-05T22:54:51.346Z,100.00
2023-03-05T22:59:57.042Z,100.00
2023-03-05T23:05:01.672Z,100.00
2023-03-05T23:10:08.684Z,100.00
2023-03-05T23:15:16.526Z,100.00
2023-03-05T23:20:22.726Z,100.00
2023-03-05T23:25:30.103Z,100.00
2023-03-05T23:30:39.499Z,100.00
2023-03-05T23:35:50.306Z,100.00
2023-03-05T23:40:56.198Z,100.00
2023-03-05T23:46:02.056Z,100.00
2023-03-05T23:51:10.385Z,100.00
2023-03-05T23:56:14.675Z,100.00
